Dara'a, Syria

11:40 PM EEST on September 18, 2014 (GMT +0300)
Marka International | Change Station
CLOSE
Current Station
Airport
Location: Amman,
Elevation: 2556 ft
Nearby Weather Stations

Elev 2556 ft 31.97 °N, 35.99 °E | Updated 40 minutes ago

Haze
Haze
68 °F
Feels Like 68 °F
N
9
Wind Variable Wind from North

Today
High -- | Low -- °F
--% Chance of Precip.
Yesterday
High -- | Low -- °F
Precip. -- in
6:21 AM 6:38 PM
Waning Crescent, 24% visible
Pressure 30.04 in
Visibility 3.1 miles
Clouds
Dew Point 57 °F
Humidity 68%
Rainfall 0.00 in
Snow Depth Not available.
UV Not available.
Pollen Not available.
Air Quality Not available.
Flu Activity Not available.
METAR OJAM 182000Z 35008KT 5000 HZ NSC 20/14 Q1017 NOSIG

More Conditions Fewer Conditions

Pressure 30.04 in
Visibility 3.1 miles
Clouds
Dew Point 57 °F
Humidity 68%
Rainfall 0.00 in
Snow Depth Not available.
UV Not available.
Pollen Not available.
Air Quality Not available.
Flu Activity Not available.
METAR OJAM 182000Z 35008KT 5000 HZ NSC 20/14 Q1017 NOSIG

More Conditions Fewer Conditions

10-Day Weather Forecast

Almanac

Astronomy

Sep. 18, 2014 Rise Set
Actual Time 6:21 AM EEST 6:38 PM EEST
Civil Twilight 5:56 AM EEST 7:02 PM EEST
Nautical Twilight 5:27 AM EEST 7:31 PM EEST
Astronomical Twilight 4:58 AM EEST 8:00 PM EEST
Moon 1:07 AM EEST 3:02 PM EEST
Length of Visible Light 13h 06m
Length of Day
12h 17m
Tomorrow will be 1m 58s shorter.
Waning Crescent, 24% of the Moon is Illuminated
Today
Waning Crescent
Sep 24
New
Oct 1
First Quarter
Oct 8
Full
Oct 15
Last Quarter

Today's Extremes

Country Highs Country Lows

Community

WunderPhotos

Upload Photos

1,754,430 photos uploaded!

WunderBlogs® & News

By Dr. Jeff Masters
Director of Meteorology, Weather Underground
By Kari Strenfel
Meteorologist, Weather Underground
By Christopher C. Burt
Weather Historian, Weather Underground
September 18, 2014
September 18, 2014
September 18, 2014

Nearby

Snow Depth

Not available.

Earthquake Activity

City Distance Mag. Time & Date
No recent earthquake activity has been reported nearby.
Minimum magnitude displayed is 2.5.

Coastal Water Temperatures

Place Temperature
No Stations Reporting

Nearby Weather Stations